Time;durP1;ratioP1;P1;durP2;ratioP2;P2;SDS_P1;SDS_P2;PMS_P1;PMS_P2;Temp;Humidity;BMP_temperature;BMP_pressure;BME280_temperature;BME280_humidity;BME280_pressure;Samples;Min_cycle;Max_cycle;Signal;HPM_P1;HPM_P2
2023/11/10 00:01:23;;;;;;;0.82;0.82;;;;;;;;;;4973889;28;20440;-83
2023/11/10 00:04:08;;;;;;;2.13;1.00;;;;;;;;;;4955004;28;20109;-83
2023/11/10 00:06:53;;;;;;;1.98;1.13;;;;;;;;;;4972795;28;20030;-83
2023/11/10 00:09:38;;;;;;;2.55;1.38;;;;;;;;;;4973212;28;20030;-84
2023/11/10 00:12:24;;;;;;;1.92;1.02;;;;;;;;;;4974852;28;20082;-83
2023/11/10 00:15:09;;;;;;;1.17;0.93;;;;;;;;;;4973606;28;20516;-84
2023/11/10 00:17:56;;;;;;;1.95;0.98;;;;;;;;;;4973221;28;20074;-83
2023/11/10 00:20:42;;;;;;;1.40;1.15;;;;;;;;;;4956319;28;20114;-84
2023/11/10 00:23:28;;;;;;;2.17;1.13;;;;;;;;;;4975964;28;20405;-84
2023/11/10 00:26:20;;;;;;;4.55;1.45;;;;;;;;;;4972430;28;20033;-84
2023/11/10 00:29:05;;;;;;;2.85;1.00;;;;;;;;;;4970407;28;20030;-85
2023/11/10 00:31:50;;;;;;;2.08;1.15;;;;;;;;;;4973948;28;20022;-84
2023/11/10 00:34:36;;;;;;;4.32;1.40;;;;;;;;;;4974435;28;20096;-83
2023/11/10 00:37:22;;;;;;;3.25;1.30;;;;;;;;;;4973211;28;20144;-84
2023/11/10 00:40:08;;;;;;;1.67;1.23;;;;;;;;;;4968918;28;20500;-83
2023/11/10 00:42:53;;;;;;;2.15;1.15;;;;;;;;;;4967816;28;20118;-83
2023/11/10 00:45:39;;;;;;;4.07;1.60;;;;;;;;;;4972805;28;20473;-83
2023/11/10 00:48:24;;;;;;;4.97;1.30;;;;;;;;;;4967622;28;20034;-83
2023/11/10 00:51:09;;;;;;;4.10;1.40;;;;;;;;;;4966488;28;20026;-83
2023/11/10 00:53:54;;;;;;;3.63;1.40;;;;;;;;;;4971577;28;20109;-84
2023/11/10 00:56:39;;;;;;;1.55;1.00;;;;;;;;;;4971613;28;20510;-83
2023/11/10 00:59:25;;;;;;;1.58;1.00;;;;;;;;;;4954731;28;20463;-82
2023/11/10 01:02:10;;;;;;;1.77;0.80;;;;;;;;;;4975331;28;20157;-84
2023/11/10 01:04:55;;;;;;;2.53;1.00;;;;;;;;;;4975698;28;20042;-83
2023/11/10 01:07:40;;;;;;;1.50;1.30;;;;;;;;;;4971266;28;20030;-83
2023/11/10 01:10:26;;;;;;;3.28;1.25;;;;;;;;;;4970839;28;20072;-83
2023/11/10 01:13:14;;;;;;;3.08;1.10;;;;;;;;;;4972764;28;20111;-84
2023/11/10 01:15:59;;;;;;;0.98;0.77;;;;;;;;;;4966407;28;20041;-83
2023/11/10 01:18:44;;;;;;;4.63;1.10;;;;;;;;;;4975702;28;20058;-84
2023/11/10 01:21:29;;;;;;;2.75;1.50;;;;;;;;;;4964005;28;20114;-84
2023/11/10 01:24:16;;;;;;;1.60;0.70;;;;;;;;;;4976201;28;20089;-84
2023/11/10 01:27:01;;;;;;;1.80;1.58;;;;;;;;;;4964972;28;20038;-84
2023/11/10 01:29:47;;;;;;;0.90;0.85;;;;;;;;;;4972362;28;20102;-83
2023/11/10 01:32:32;;;;;;;1.15;1.00;;;;;;;;;;4968253;28;20042;-84
2023/11/10 01:35:17;;;;;;;1.83;1.00;;;;;;;;;;4956746;28;20037;-83
2023/11/10 01:38:02;;;;;;;2.70;1.40;;;;;;;;;;4969294;28;22766;-82
2023/11/10 01:40:48;;;;;;;1.05;0.90;;;;;;;;;;4952899;28;20027;-83
2023/11/10 01:43:33;;;;;;;1.58;1.00;;;;;;;;;;4975211;28;20373;-84
2023/11/10 01:46:27;;;;;;;0.80;0.80;;;;;;;;;;4965806;28;20299;-83
2023/11/10 01:49:14;;;;;;;1.42;0.93;;;;;;;;;;4972345;28;20030;-82
2023/11/10 01:52:00;;;;;;;3.17;1.00;;;;;;;;;;4972519;28;20524;-83
2023/11/10 01:54:46;;;;;;;2.88;0.90;;;;;;;;;;4972090;28;20025;-84
2023/11/10 01:57:32;;;;;;;0.85;0.80;;;;;;;;;;4971907;28;20042;-83
2023/11/10 02:00:19;;;;;;;1.08;0.98;;;;;;;;;;4971573;28;20109;-83
2023/11/10 02:03:05;;;;;;;1.33;1.08;;;;;;;;;;4971408;28;20038;-84
2023/11/10 02:05:50;;;;;;;2.08;1.00;;;;;;;;;;4973020;28;20492;-83
2023/11/10 02:08:36;;;;;;;1.42;0.80;;;;;;;;;;4971727;28;20077;-83
2023/11/10 02:11:23;;;;;;;1.30;0.73;;;;;;;;;;4950683;28;20058;-85
2023/11/10 02:14:09;;;;;;;1.67;0.90;;;;;;;;;;4970837;28;20030;-84
2023/11/10 02:16:54;;;;;;;0.70;0.70;;;;;;;;;;4973780;28;20088;-84
2023/11/10 02:19:39;;;;;;;1.38;1.02;;;;;;;;;;4969425;28;20077;-83
2023/11/10 02:22:25;;;;;;;1.15;0.80;;;;;;;;;;4970951;28;20117;-83
2023/11/10 02:25:14;;;;;;;1.73;0.80;;;;;;;;;;4967335;28;20101;-84
2023/11/10 02:27:59;;;;;;;1.10;0.73;;;;;;;;;;4973576;28;20384;-83
2023/11/10 02:30:44;;;;;;;1.85;0.77;;;;;;;;;;4955102;28;20595;-83
2023/11/10 02:33:29;;;;;;;1.60;0.82;;;;;;;;;;4962677;28;20022;-82
2023/11/10 02:36:15;;;;;;;1.30;0.75;;;;;;;;;;4967224;28;20026;-82
2023/11/10 02:39:00;;;;;;;2.45;0.80;;;;;;;;;;4971345;28;20065;-83
2023/11/10 02:41:46;;;;;;;3.30;1.00;;;;;;;;;;4969435;28;20093;-84
2023/11/10 02:44:31;;;;;;;1.30;0.65;;;;;;;;;;4971201;28;20492;-82
2023/11/10 02:47:16;;;;;;;2.13;0.90;;;;;;;;;;4969242;28;20033;-83
2023/11/10 02:50:02;;;;;;;0.80;0.80;;;;;;;;;;4972522;28;20038;-83
2023/11/10 02:52:47;;;;;;;1.77;0.85;;;;;;;;;;4972293;28;20030;-83
2023/11/10 02:55:32;;;;;;;1.95;0.70;;;;;;;;;;4954718;28;20401;-83
2023/11/10 02:58:17;;;;;;;1.02;0.85;;;;;;;;;;4971006;28;20536;-83
2023/11/10 03:01:03;;;;;;;1.25;0.80;;;;;;;;;;4973596;28;20459;-84
2023/11/10 03:03:48;;;;;;;5.45;0.80;;;;;;;;;;4983886;28;20026;-84
2023/11/10 03:06:33;;;;;;;1.52;1.00;;;;;;;;;;4969567;28;20027;-84
2023/11/10 03:09:19;;;;;;;2.53;1.15;;;;;;;;;;4978132;28;20080;-84
2023/11/10 03:12:04;;;;;;;1.08;0.85;;;;;;;;;;4978962;28;20524;-84
2023/11/10 03:14:50;;;;;;;0.65;0.65;;;;;;;;;;4976998;28;20058;-83
2023/11/10 03:17:35;;;;;;;1.85;0.90;;;;;;;;;;4977842;28;20030;-84
2023/11/10 03:20:21;;;;;;;1.50;0.85;;;;;;;;;;4979057;28;20026;-85
2023/11/10 03:23:07;;;;;;;1.58;0.90;;;;;;;;;;4979204;28;20069;-83
2023/11/10 03:25:53;;;;;;;0.90;0.80;;;;;;;;;;4964683;28;20033;-84
2023/11/10 03:28:38;;;;;;;1.00;0.82;;;;;;;;;;4977266;28;20389;-83
2023/11/10 03:31:27;;;;;;;1.85;1.00;;;;;;;;;;4971127;28;20042;-83
2023/11/10 03:37:58;;;;;;;1.60;1.00;;;;;;;;;;4961555;28;20057;-84
2023/11/10 03:40:45;;;;;;;0.98;0.73;;;;;;;;;;4977766;28;20410;-85
2023/11/10 03:43:33;;;;;;;0.70;0.70;;;;;;;;;;4978189;28;20026;-84
2023/11/10 03:46:18;;;;;;;4.00;0.90;;;;;;;;;;4974471;28;20025;-84
2023/11/10 03:49:04;;;;;;;0.73;0.73;;;;;;;;;;4978041;28;20019;-83
2023/11/10 03:51:50;;;;;;;0.98;0.65;;;;;;;;;;4978129;28;20081;-84
2023/11/10 03:54:35;;;;;;;0.85;0.80;;;;;;;;;;4971907;28;20018;-83
2023/11/10 03:57:20;;;;;;;1.45;0.80;;;;;;;;;;4977857;28;20057;-84
2023/11/10 04:00:06;;;;;;;1.00;0.90;;;;;;;;;;4978710;28;20030;-84
2023/11/10 04:02:52;;;;;;;0.63;0.63;;;;;;;;;;4977138;28;20034;-84
2023/11/10 04:05:38;;;;;;;4.32;0.70;;;;;;;;;;4973401;28;20113;-84
2023/11/10 04:08:23;;;;;;;3.13;0.70;;;;;;;;;;4971719;28;20085;-84
2023/11/10 04:11:09;;;;;;;0.50;0.50;;;;;;;;;;4973805;28;20176;-84
2023/11/10 04:13:54;;;;;;;1.38;0.70;;;;;;;;;;4968686;28;20034;-83
2023/11/10 04:19:52;;;;;;;0.82;0.57;;;;;;;;;;4983690;28;20049;-82
2023/11/10 04:22:41;;;;;;;3.25;0.60;;;;;;;;;;4974837;28;20037;-82
2023/11/10 04:25:27;;;;;;;5.53;1.13;;;;;;;;;;4973509;28;20464;-83
2023/11/10 04:28:41;;;;;;;2.10;0.70;;;;;;;;;;4972123;28;20064;-83
2023/11/10 04:31:28;;;;;;;2.67;0.52;;;;;;;;;;4970792;28;20683;-82
2023/11/10 04:34:14;;;;;;;0.68;0.55;;;;;;;;;;4971910;28;20082;-82
2023/11/10 04:36:59;;;;;;;0.50;0.50;;;;;;;;;;4972802;28;20368;-84
2023/11/10 04:39:45;;;;;;;1.25;0.70;;;;;;;;;;4969321;28;20078;-83
2023/11/10 04:42:30;;;;;;;1.23;0.82;;;;;;;;;;4971945;28;20520;-83
2023/11/10 04:45:15;;;;;;;0.70;0.60;;;;;;;;;;4968845;28;20538;-84
2023/11/10 04:48:00;;;;;;;1.55;0.73;;;;;;;;;;4970746;28;20380;-83
2023/11/10 04:50:47;;;;;;;2.05;0.60;;;;;;;;;;4973077;28;20065;-83
2023/11/10 04:53:32;;;;;;;0.70;0.50;;;;;;;;;;4969398;28;20030;-83
2023/11/10 04:56:18;;;;;;;1.60;0.80;;;;;;;;;;4971563;28;20439;-83
2023/11/10 04:59:03;;;;;;;0.52;0.52;;;;;;;;;;4973262;28;20033;-82
2023/11/10 05:01:49;;;;;;;1.90;0.60;;;;;;;;;;4973524;28;20022;-82
2023/11/10 05:04:40;;;;;;;0.68;0.68;;;;;;;;;;4971177;28;20484;-82
2023/11/10 05:07:26;;;;;;;2.42;0.65;;;;;;;;;;4971177;28;20030;-82
2023/11/10 05:10:12;;;;;;;0.50;0.50;;;;;;;;;;4972043;28;20046;-82
2023/11/10 05:12:58;;;;;;;4.38;0.73;;;;;;;;;;4973706;28;20518;-82
2023/11/10 05:15:43;;;;;;;0.73;0.43;;;;;;;;;;4972405;28;20461;-81
2023/11/10 05:18:28;;;;;;;1.30;0.50;;;;;;;;;;4970610;28;20038;-81
2023/11/10 05:21:14;;;;;;;0.85;0.50;;;;;;;;;;4970332;28;20037;-82
2023/11/10 05:23:59;;;;;;;1.05;0.60;;;;;;;;;;4970445;28;20038;-82
2023/11/10 05:26:45;;;;;;;0.95;0.70;;;;;;;;;;4952471;28;20030;-81
2023/11/10 05:29:30;;;;;;;1.25;0.40;;;;;;;;;;4965300;28;20109;-82
2023/11/10 05:32:15;;;;;;;1.00;0.55;;;;;;;;;;4969183;28;20056;-81
2023/11/10 05:35:01;;;;;;;0.90;0.60;;;;;;;;;;4978688;28;20029;-82
2023/11/10 05:37:46;;;;;;;2.42;1.08;;;;;;;;;;4974075;28;20018;-82
2023/11/10 05:40:32;;;;;;;1.23;0.70;;;;;;;;;;4984690;28;20054;-82
2023/11/10 05:43:22;;;;;;;0.52;0.50;;;;;;;;;;4980671;28;20022;-82
2023/11/10 05:46:07;;;;;;;2.88;0.60;;;;;;;;;;4978764;28;20173;-81
2023/11/10 05:48:52;;;;;;;0.75;0.60;;;;;;;;;;4972225;28;20441;-81
2023/11/10 05:51:38;;;;;;;1.00;0.60;;;;;;;;;;4974768;28;20126;-82
2023/11/10 05:54:23;;;;;;;5.30;0.77;;;;;;;;;;4970344;28;20088;-83
2023/11/10 05:57:08;;;;;;;2.05;0.60;;;;;;;;;;4960735;28;20030;-84
2023/11/10 05:59:54;;;;;;;0.77;0.50;;;;;;;;;;4985579;28;20034;-83
2023/11/10 06:02:39;;;;;;;0.65;0.60;;;;;;;;;;4972008;28;20034;-82
2023/11/10 06:05:25;;;;;;;0.50;0.50;;;;;;;;;;4966379;28;20045;-82
2023/11/10 06:08:14;;;;;;;1.30;0.52;;;;;;;;;;4959826;28;20038;-84
2023/11/10 06:11:00;;;;;;;2.22;0.70;;;;;;;;;;4972596;28;20085;-84
2023/11/10 06:13:45;;;;;;;1.83;0.98;;;;;;;;;;4972388;28;20030;-83
2023/11/10 06:16:31;;;;;;;0.57;0.57;;;;;;;;;;4974353;28;20037;-82
2023/11/10 06:19:16;;;;;;;0.88;0.68;;;;;;;;;;4971482;28;20038;-82
2023/11/10 06:22:02;;;;;;;0.77;0.50;;;;;;;;;;4973057;28;20038;-83
2023/11/10 06:24:49;;;;;;;1.23;1.10;;;;;;;;;;4969004;28;20412;-85
2023/11/10 06:27:34;;;;;;;1.60;0.60;;;;;;;;;;4971323;28;20033;-84
2023/11/10 06:30:20;;;;;;;3.55;0.70;;;;;;;;;;4970614;28;20116;-83
2023/11/10 06:33:05;;;;;;;2.13;0.90;;;;;;;;;;4974401;28;20080;-86
2023/11/10 06:35:51;;;;;;;1.05;0.73;;;;;;;;;;4970071;28;20038;-82
2023/11/10 06:38:36;;;;;;;1.08;0.60;;;;;;;;;;4971650;28;20514;-87
2023/11/10 06:41:22;;;;;;;0.70;0.70;;;;;;;;;;4974728;28;20118;-85
2023/11/10 06:44:09;;;;;;;1.42;0.80;;;;;;;;;;4973219;28;20034;-84
2023/11/10 06:46:54;;;;;;;0.50;0.50;;;;;;;;;;4971561;28;20034;-88
2023/11/10 06:49:39;;;;;;;1.90;1.80;;;;;;;;;;4972040;28;20033;-85
2023/11/10 06:52:25;;;;;;;1.15;0.63;;;;;;;;;;4968187;28;20029;-84
2023/11/10 06:55:13;;;;;;;0.90;0.60;;;;;;;;;;4975090;28;20069;-85
2023/11/10 06:57:58;;;;;;;4.43;0.90;;;;;;;;;;4975741;28;20023;-85
2023/11/10 07:00:47;;;;;;;1.67;0.77;;;;;;;;;;4970733;28;20011;-85
2023/11/10 07:03:32;;;;;;;2.17;0.65;;;;;;;;;;4976506;28;20041;-85
2023/11/10 07:06:18;;;;;;;1.85;0.70;;;;;;;;;;4972083;28;20034;-86
2023/11/10 07:09:03;;;;;;;0.85;0.60;;;;;;;;;;4979928;28;20490;-90
2023/11/10 07:11:49;;;;;;;1.65;0.70;;;;;;;;;;4963107;28;20070;-89
2023/11/10 07:14:34;;;;;;;1.65;0.60;;;;;;;;;;4975079;28;20101;-88
2023/11/10 07:17:22;;;;;;;1.00;0.65;;;;;;;;;;4975337;28;20019;-93
2023/11/10 07:20:10;;;;;;;2.33;0.90;;;;;;;;;;4976612;28;20534;-90
2023/11/10 07:22:55;;;;;;;1.13;0.70;;;;;;;;;;4971108;28;20031;-91
2023/11/10 07:25:41;;;;;;;1.40;0.80;;;;;;;;;;4990372;28;20495;-90
2023/11/10 07:28:28;;;;;;;1.48;0.70;;;;;;;;;;4971527;28;20030;-92
2023/11/10 07:31:14;;;;;;;3.17;0.80;;;;;;;;;;4978094;28;20026;-90
2023/11/10 07:33:59;;;;;;;1.60;0.90;;;;;;;;;;4964521;28;20026;-88
2023/11/10 07:36:44;;;;;;;3.58;0.98;;;;;;;;;;4970929;28;20034;-89
2023/11/10 07:39:30;;;;;;;1.90;1.05;;;;;;;;;;4963097;28;20374;-88
2023/11/10 07:42:16;;;;;;;3.38;0.70;;;;;;;;;;4963159;28;20026;-90
2023/11/10 07:45:02;;;;;;;1.80;0.70;;;;;;;;;;4978711;28;20038;-89
2023/11/10 07:47:48;;;;;;;2.38;1.58;;;;;;;;;;4973510;28;20378;-88
2023/11/10 07:50:33;;;;;;;2.90;1.20;;;;;;;;;;4976030;28;20026;-90
2023/11/10 07:53:19;;;;;;;1.83;0.85;;;;;;;;;;4977136;28;20366;-90
2023/11/10 07:56:04;;;;;;;1.55;0.90;;;;;;;;;;4980376;28;20411;-89
2023/11/10 07:58:49;;;;;;;2.17;0.90;;;;;;;;;;4974975;28;20054;-89
2023/11/10 08:01:41;;;;;;;3.05;1.00;;;;;;;;;;4979382;28;20033;-92
2023/11/10 08:04:29;;;;;;;0.80;0.80;;;;;;;;;;4977442;28;20039;-91
2023/11/10 08:07:14;;;;;;;5.43;1.25;;;;;;;;;;4961897;28;20058;-90
2023/11/10 08:10:02;;;;;;;3.25;0.90;;;;;;;;;;4975576;28;20054;-88
2023/11/10 08:12:47;;;;;;;2.10;1.38;;;;;;;;;;4975605;28;20192;-88
2023/11/10 08:15:33;;;;;;;4.03;1.23;;;;;;;;;;4974542;28;20034;-89
2023/11/10 08:18:21;;;;;;;2.50;0.95;;;;;;;;;;4980438;28;20022;-92
2023/11/10 08:21:14;;;;;;;1.80;1.00;;;;;;;;;;4996734;28;20010;-87
2023/11/10 08:23:59;;;;;;;1.27;0.80;;;;;;;;;;4977652;28;20023;-87
2023/11/10 08:26:44;;;;;;;2.85;1.00;;;;;;;;;;4961968;28;20040;-92
2023/11/10 08:29:30;;;;;;;4.35;1.00;;;;;;;;;;4980098;28;20030;-89
2023/11/10 08:32:20;;;;;;;5.10;0.93;;;;;;;;;;4979110;28;20376;-91
2023/11/10 08:35:07;;;;;;;1.08;0.80;;;;;;;;;;4974859;28;20077;-89
2023/11/10 08:37:52;;;;;;;1.92;1.00;;;;;;;;;;4988826;28;20038;-90
2023/11/10 08:40:44;;;;;;;1.75;0.80;;;;;;;;;;4989309;28;20026;-92
2023/11/10 08:43:30;;;;;;;1.67;0.90;;;;;;;;;;4986883;28;20061;-90
2023/11/10 08:49:57;;;;;;;2.63;0.93;;;;;;;;;;4990201;28;20085;-93
2023/11/10 08:53:16;;;;;;;2.58;1.23;;;;;;;;;;4981367;28;20134;-93
2023/11/10 08:56:01;;;;;;;0.55;0.55;;;;;;;;;;4950414;28;20122;-89
2023/11/10 08:58:46;;;;;;;0.80;0.70;;;;;;;;;;4972001;28;20062;-91
2023/11/10 09:01:32;;;;;;;0.85;0.70;;;;;;;;;;4973383;28;20026;-88
2023/11/10 09:10:31;;;;;;;1.85;0.63;;;;;;;;;;4969467;23;20510;-89
2023/11/10 09:13:17;;;;;;;0.75;0.75;;;;;;;;;;4952739;28;20559;-89
2023/11/10 09:16:04;;;;;;;3.20;0.73;;;;;;;;;;4953473;28;20037;-88
2023/11/10 09:18:49;;;;;;;0.57;0.57;;;;;;;;;;4955664;28;20042;-89
2023/11/10 09:21:40;;;;;;;0.60;0.60;;;;;;;;;;4953195;28;20034;-89
2023/11/10 09:24:47;;;;;;;0.60;0.60;;;;;;;;;;4949895;28;20037;-92
2023/11/10 09:31:02;;;;;;;0.80;0.80;;;;;;;;;;4953913;28;20062;-89
2023/11/10 09:34:01;;;;;;;;;;;;;;;;;;;;;
2023/11/10 09:36:46;;;;;;;1.05;0.90;;;;;;;;;;4965423;28;20086;-89
2023/11/10 09:39:34;;;;;;;0.50;0.50;;;;;;;;;;4951383;28;20061;-88
2023/11/10 09:49:10;;;;;;;1.58;0.77;;;;;;;;;;4924228;29;20139;-88
2023/11/10 09:51:56;;;;;;;1.02;0.73;;;;;;;;;;4946860;28;20037;-88
2023/11/10 09:54:45;;;;;;;0.65;0.65;;;;;;;;;;4950895;28;20161;-88
2023/11/10 09:57:41;;;;;;;2.80;0.73;;;;;;;;;;4911639;28;20055;-89
2023/11/10 10:00:29;;;;;;;2.67;0.80;;;;;;;;;;4952040;28;20077;-89
2023/11/10 10:03:14;;;;;;;1.65;1.17;;;;;;;;;;4951959;28;20113;-87
2023/11/10 10:06:00;;;;;;;2.22;0.93;;;;;;;;;;4954267;28;20685;-88
2023/11/10 10:08:46;;;;;;;1.05;0.57;;;;;;;;;;4948073;28;20057;-88
2023/11/10 10:11:34;;;;;;;1.17;0.75;;;;;;;;;;4944095;28;20066;-88
2023/11/10 10:14:19;;;;;;;0.95;0.70;;;;;;;;;;4950689;28;20509;-87
2023/11/10 10:17:07;;;;;;;1.05;0.70;;;;;;;;;;4931787;28;20063;-88
2023/11/10 10:20:03;;;;;;;0.65;0.65;;;;;;;;;;4945268;28;20494;-87
2023/11/10 10:22:52;;;;;;;1.00;0.63;;;;;;;;;;4945565;28;20145;-90
2023/11/10 10:25:39;;;;;;;1.75;0.85;;;;;;;;;;4943902;28;20106;-89
2023/11/10 10:28:25;;;;;;;1.05;0.60;;;;;;;;;;4950178;28;20490;-86
2023/11/10 10:31:13;;;;;;;1.40;0.70;;;;;;;;;;4943777;28;20023;-85
2023/11/10 10:34:04;;;;;;;3.50;1.50;;;;;;;;;;4953555;28;20309;-85
2023/11/10 10:36:49;;;;;;;3.30;0.68;;;;;;;;;;4958110;28;20039;-89
2023/11/10 10:39:36;;;;;;;0.65;0.65;;;;;;;;;;4947813;28;20037;-85
2023/11/10 10:42:22;;;;;;;1.77;0.70;;;;;;;;;;4947465;28;20039;-85
2023/11/10 10:45:09;;;;;;;4.85;1.35;;;;;;;;;;4937837;28;20070;-83
2023/11/10 10:47:58;;;;;;;0.95;0.70;;;;;;;;;;4942778;28;20397;-85
2023/11/10 10:50:43;;;;;;;1.52;0.80;;;;;;;;;;4949975;28;20027;-85
2023/11/10 10:53:29;;;;;;;1.00;0.90;;;;;;;;;;4939592;28;20036;-82
2023/11/10 10:56:14;;;;;;;0.70;0.70;;;;;;;;;;4943258;28;20028;-81
2023/11/10 10:59:00;;;;;;;1.88;0.93;;;;;;;;;;4938154;28;20204;-79
2023/11/10 11:01:46;;;;;;;0.90;0.65;;;;;;;;;;4944337;28;20194;-79
2023/11/10 11:04:55;;;;;;;1.33;0.90;;;;;;;;;;4947530;28;20035;-83
2023/11/10 11:07:54;;;;;;;1.83;0.80;;;;;;;;;;4943763;28;20134;-79
2023/11/10 11:10:41;;;;;;;2.10;1.00;;;;;;;;;;4949390;28;20082;-77
2023/11/10 11:13:38;;;;;;;2.50;1.27;;;;;;;;;;4944064;28;20039;-77
2023/11/10 11:16:42;;;;;;;3.00;1.13;;;;;;;;;;4945968;28;20063;-77
2023/11/10 11:19:30;;;;;;;3.00;0.90;;;;;;;;;;4935748;28;20490;-79
2023/11/10 11:22:15;;;;;;;1.20;0.95;;;;;;;;;;4940859;28;20118;-81
2023/11/10 11:25:08;;;;;;;1.55;0.80;;;;;;;;;;4941553;28;20433;-83
2023/11/10 11:27:59;;;;;;;2.85;1.15;;;;;;;;;;4948992;28;20042;-80
2023/11/10 11:30:45;;;;;;;1.85;0.85;;;;;;;;;;4942249;28;20038;-80
2023/11/10 11:33:30;;;;;;;1.02;0.85;;;;;;;;;;4940436;28;20747;-80
2023/11/10 11:36:16;;;;;;;3.50;0.80;;;;;;;;;;4942890;28;20024;-81
2023/11/10 11:39:02;;;;;;;7.60;2.30;;;;;;;;;;4936717;28;20032;-83
2023/11/10 11:41:49;;;;;;;2.60;0.80;;;;;;;;;;4943688;28;20035;-83
2023/11/10 11:44:35;;;;;;;2.58;1.00;;;;;;;;;;4944466;28;20031;-83
2023/11/10 11:47:22;;;;;;;3.22;0.90;;;;;;;;;;4951243;28;20030;-82
2023/11/10 11:50:09;;;;;;;6.32;1.25;;;;;;;;;;4944481;28;20403;-82
2023/11/10 11:52:56;;;;;;;3.17;0.80;;;;;;;;;;4960192;28;20110;-81
2023/11/10 11:55:41;;;;;;;2.25;1.10;;;;;;;;;;4938849;28;20146;-80
2023/11/10 11:58:33;;;;;;;1.38;0.80;;;;;;;;;;4943385;28;20019;-82
2023/11/10 12:01:25;;;;;;;1.30;0.82;;;;;;;;;;4937980;28;20150;-83
2023/11/10 12:04:10;;;;;;;1.30;1.17;;;;;;;;;;4943472;28;20123;-82
2023/11/10 12:06:55;;;;;;;1.05;0.90;;;;;;;;;;4942045;28;20042;-85
2023/11/10 12:09:41;;;;;;;3.42;0.80;;;;;;;;;;4949771;28;20445;-83
2023/11/10 12:12:26;;;;;;;1.42;0.88;;;;;;;;;;4942650;28;20039;-83
2023/11/10 12:15:11;;;;;;;0.90;0.70;;;;;;;;;;4941504;28;20135;-82
2023/11/10 12:17:57;;;;;;;1.63;0.70;;;;;;;;;;4950899;28;20418;-82
2023/11/10 12:20:42;;;;;;;1.52;0.80;;;;;;;;;;4963329;28;20024;-83
2023/11/10 12:23:27;;;;;;;1.02;0.80;;;;;;;;;;4945499;28;20028;-83
2023/11/10 12:26:12;;;;;;;1.88;0.80;;;;;;;;;;4945432;28;20031;-82
2023/11/10 12:28:58;;;;;;;1.20;0.80;;;;;;;;;;4947947;28;20035;-80
2023/11/10 12:31:43;;;;;;;0.93;0.80;;;;;;;;;;4943791;28;20026;-82
2023/11/10 12:34:29;;;;;;;0.98;0.70;;;;;;;;;;4943400;28;20054;-81
2023/11/10 12:37:16;;;;;;;2.10;0.80;;;;;;;;;;4942171;28;20517;-82
2023/11/10 12:40:06;;;;;;;1.20;0.60;;;;;;;;;;4940117;28;20034;-82
2023/11/10 12:42:52;;;;;;;1.70;0.80;;;;;;;;;;4946762;28;20062;-82
2023/11/10 12:45:37;;;;;;;1.50;0.70;;;;;;;;;;4950002;28;20031;-79
2023/11/10 12:48:24;;;;;;;1.33;0.63;;;;;;;;;;4941353;28;20020;-82
2023/11/10 12:51:11;;;;;;;2.50;0.70;;;;;;;;;;4938773;28;20027;-81
2023/11/10 12:54:05;;;;;;;4.05;1.27;;;;;;;;;;4937481;28;20394;-81
2023/11/10 12:56:50;;;;;;;0.52;0.52;;;;;;;;;;4941866;28;20027;-81
2023/11/10 12:59:36;;;;;;;0.95;0.60;;;;;;;;;;4939851;28;20027;-81
2023/11/10 13:02:22;;;;;;;0.82;0.70;;;;;;;;;;4938851;28;20042;-82
2023/11/10 13:05:07;;;;;;;0.73;0.65;;;;;;;;;;4943880;28;20512;-79
2023/11/10 13:07:52;;;;;;;1.25;0.90;;;;;;;;;;4947019;28;20517;-84
2023/11/10 13:10:37;;;;;;;1.85;0.80;;;;;;;;;;4945229;28;20398;-84
2023/11/10 13:13:23;;;;;;;2.17;0.75;;;;;;;;;;4937538;28;20026;-81
2023/11/10 13:16:09;;;;;;;2.33;1.00;;;;;;;;;;4941117;28;20031;-85
2023/11/10 13:18:54;;;;;;;3.85;1.13;;;;;;;;;;4954354;28;20041;-82
2023/11/10 13:21:39;;;;;;;1.48;0.80;;;;;;;;;;4942078;28;20577;-85
2023/11/10 13:24:26;;;;;;;2.70;0.80;;;;;;;;;;4938452;28;20035;-87
2023/11/10 13:27:12;;;;;;;0.60;0.60;;;;;;;;;;4949666;28;20039;-81
2023/11/10 13:29:59;;;;;;;1.17;0.88;;;;;;;;;;4955499;28;20027;-79
2023/11/10 13:32:43;;;;;;;2.28;0.73;;;;;;;;;;4951406;28;20082;-82
2023/11/10 13:35:27;;;;;;;1.58;0.80;;;;;;;;;;4952904;28;20042;-84
2023/11/10 13:38:12;;;;;;;0.98;0.65;;;;;;;;;;4943987;28;20382;-85
2023/11/10 13:40:58;;;;;;;1.63;0.95;;;;;;;;;;4949026;28;20031;-82
2023/11/10 13:43:43;;;;;;;1.15;0.80;;;;;;;;;;4951188;28;20039;-83
2023/11/10 13:46:28;;;;;;;1.55;0.70;;;;;;;;;;4943609;28;20027;-84
2023/11/10 13:49:14;;;;;;;3.38;0.80;;;;;;;;;;4942344;28;20035;-83
2023/11/10 13:51:59;;;;;;;2.10;1.02;;;;;;;;;;4941944;28;20035;-80
2023/11/10 13:54:44;;;;;;;4.78;1.00;;;;;;;;;;4941057;28;20031;-84
2023/11/10 13:57:30;;;;;;;3.45;1.00;;;;;;;;;;4943039;28;20038;-83
2023/11/10 14:00:17;;;;;;;2.10;1.05;;;;;;;;;;4940799;28;20043;-85
2023/11/10 14:03:03;;;;;;;1.63;1.10;;;;;;;;;;4937986;28;20035;-85
2023/11/10 14:05:48;;;;;;;2.08;0.98;;;;;;;;;;4942689;28;20438;-82
2023/11/10 14:08:34;;;;;;;2.58;1.17;;;;;;;;;;4928874;28;20180;-83
2023/11/10 14:11:19;;;;;;;2.20;0.80;;;;;;;;;;4931503;28;20027;-83
2023/11/10 14:14:08;;;;;;;1.08;0.73;;;;;;;;;;4943428;28;20081;-81
2023/11/10 14:16:54;;;;;;;2.50;0.77;;;;;;;;;;4940116;28;20023;-83
2023/11/10 14:19:39;;;;;;;1.50;0.90;;;;;;;;;;4937174;28;20049;-82
2023/11/10 14:22:27;;;;;;;1.95;1.02;;;;;;;;;;4934968;28;20039;-81
2023/11/10 14:25:13;;;;;;;0.65;0.65;;;;;;;;;;4939901;28;20038;-81
2023/11/10 14:27:58;;;;;;;1.75;0.82;;;;;;;;;;4936614;28;20042;-81
2023/11/10 14:30:43;;;;;;;1.23;1.00;;;;;;;;;;4941413;28;20039;-82
2023/11/10 14:33:29;;;;;;;2.22;1.40;;;;;;;;;;4941274;28;20093;-81
2023/11/10 14:36:19;;;;;;;2.92;1.00;;;;;;;;;;4939989;28;20082;-82
2023/11/10 14:39:04;;;;;;;1.50;0.90;;;;;;;;;;4940503;28;20397;-82
2023/11/10 14:41:51;;;;;;;0.82;0.70;;;;;;;;;;4953822;28;20111;-82
2023/11/10 14:44:37;;;;;;;1.42;0.93;;;;;;;;;;4932703;28;20118;-81
2023/11/10 14:47:24;;;;;;;1.25;1.08;;;;;;;;;;4936395;28;20446;-82
2023/11/10 14:50:13;;;;;;;3.80;1.60;;;;;;;;;;4942961;28;20063;-83
2023/11/10 14:52:59;;;;;;;4.22;1.58;;;;;;;;;;4924423;28;20618;-81
2023/11/10 14:55:48;;;;;;;1.65;0.82;;;;;;;;;;4938765;28;20019;-82
2023/11/10 14:58:34;;;;;;;1.85;1.33;;;;;;;;;;4942396;28;20595;-82
2023/11/10 15:01:19;;;;;;;3.90;1.00;;;;;;;;;;4939063;28;20141;-85
2023/11/10 15:04:05;;;;;;;4.05;1.95;;;;;;;;;;4948242;28;20053;-90
2023/11/10 15:06:53;;;;;;;11.05;1.50;;;;;;;;;;4940261;29;20059;-91
2023/11/10 15:09:40;;;;;;;1.85;1.00;;;;;;;;;;4938667;28;20059;-91
2023/11/10 15:12:25;;;;;;;3.30;1.10;;;;;;;;;;4956442;28;20645;-91
2023/11/10 15:15:11;;;;;;;2.85;0.98;;;;;;;;;;4945218;28;20263;-87
2023/11/10 15:17:56;;;;;;;2.28;1.25;;;;;;;;;;4953931;28;20058;-87
2023/11/10 15:20:41;;;;;;;2.08;1.00;;;;;;;;;;4935637;28;20095;-86
2023/11/10 15:23:28;;;;;;;1.67;1.10;;;;;;;;;;4935967;28;20514;-90
2023/11/10 16:25:42;;;;;;;5.72;1.83;;;;;;;;;;5674595;23;20070;-88
2023/11/10 16:39:57;;;;;;;2.90;1.30;;;;;;;;;;4949481;28;20047;-91
2023/11/10 16:46:21;;;;;;;6.20;2.00;;;;;;;;;;4928824;29;20062;-89
2023/11/10 16:57:06;;;;;;;;;;;;;;;;;;;;;
2023/11/10 17:15:48;;;;;;;3.22;1.58;;;;;;;;;;5403246;23;20047;-91
2023/11/10 17:26:13;;;;;;;;;;;;;;;;;;;;;
2023/11/10 17:39:13;;;;;;;7.25;1.90;;;;;;;;;;4931043;29;20032;-91
2023/11/10 17:42:29;;;;;;;4.15;1.40;;;;;;;;;;4892516;29;20029;-91
2023/11/10 17:45:20;;;;;;;4.80;1.70;;;;;;;;;;4846304;29;20124;-86
2023/11/10 17:48:12;;;;;;;2.92;1.42;;;;;;;;;;4873455;29;20040;-90
2023/11/10 17:51:22;;;;;;;7.18;1.65;;;;;;;;;;4889685;28;20067;-90
2023/11/10 17:54:08;;;;;;;5.05;1.63;;;;;;;;;;4919492;28;20464;-90
2023/11/10 18:04:20;;;;;;;7.90;1.95;;;;;;;;;;4876484;29;20157;-90
2023/11/10 18:07:16;;;;;;;10.68;3.05;;;;;;;;;;4864769;29;20124;-90
2023/11/10 18:10:22;;;;;;;6.38;2.08;;;;;;;;;;4869981;29;20104;-90
2023/11/10 18:13:14;;;;;;;7.10;2.35;;;;;;;;;;4870806;29;20146;-89
2023/11/10 18:16:15;;;;;;;5.82;2.25;;;;;;;;;;4919983;29;20051;-91
2023/11/10 18:19:20;;;;;;;3.20;1.95;;;;;;;;;;4944652;29;20031;-89
2023/11/10 18:22:36;;;;;;;5.72;2.00;;;;;;;;;;4931800;29;20035;-88
2023/11/10 18:29:26;;;;;;;;;;;;;;;;;;;;;
2023/11/10 18:32:48;;;;;;;6.68;2.25;;;;;;;;;;4917622;29;20565;-90
2023/11/10 18:36:02;;;;;;;4.13;2.00;;;;;;;;;;4927899;28;20593;-91
2023/11/10 18:39:09;;;;;;;5.72;2.20;;;;;;;;;;4921830;29;20039;-91
2023/11/10 18:41:54;;;;;;;5.88;2.08;;;;;;;;;;4925693;29;20027;-89
2023/11/10 18:44:50;;;;;;;5.60;2.20;;;;;;;;;;4935526;29;20023;-90
2023/11/10 18:48:13;;;;;;;4.95;2.33;;;;;;;;;;4929898;29;20046;-91
2023/11/10 18:51:45;;;;;;;5.57;1.90;;;;;;;;;;4894801;29;20039;-90
2023/11/10 18:55:01;;;;;;;5.28;2.30;;;;;;;;;;4918121;29;20038;-90
2023/11/10 18:57:47;;;;;;;5.35;1.80;;;;;;;;;;4927808;29;20394;-89
2023/11/10 19:00:32;;;;;;;5.55;1.65;;;;;;;;;;4923113;29;20146;-90
2023/11/10 19:03:33;;;;;;;5.82;1.58;;;;;;;;;;4944181;28;20386;-90
2023/11/10 19:06:28;;;;;;;4.28;2.08;;;;;;;;;;4944970;28;20069;-89
2023/11/10 19:09:53;;;;;;;11.10;2.45;;;;;;;;;;4949469;29;20034;-90
2023/11/10 19:16:14;;;;;;;5.75;2.47;;;;;;;;;;4864811;29;20076;-88
2023/11/10 19:19:11;;;;;;;6.03;2.28;;;;;;;;;;4854518;29;20056;-88
2023/11/10 19:21:56;;;;;;;3.33;1.73;;;;;;;;;;4930429;29;20110;-88
2023/11/10 19:24:58;;;;;;;5.45;2.50;;;;;;;;;;4940859;28;20040;-90
2023/11/10 19:27:47;;;;;;;3.92;1.30;;;;;;;;;;4954112;28;20042;-88